createdAt,value
2023-03-13T00:02:53.966Z,7.23
2023-03-13T00:07:57.853Z,6.33
2023-03-13T00:13:00.435Z,5.40
2023-03-13T00:18:02.987Z,6.47
2023-03-13T00:23:07.159Z,6.60
2023-03-13T00:28:09.770Z,6.53
2023-03-13T00:33:12.342Z,7.17
2023-03-13T00:38:16.267Z,6.43
2023-03-13T00:43:18.819Z,7.65
2023-03-13T00:48:21.424Z,6.40
2023-03-13T00:53:25.562Z,7.43
2023-03-13T00:58:30.269Z,7.40
2023-03-13T01:03:32.835Z,6.15
2023-03-13T01:08:37.396Z,7.97
2023-03-13T01:13:40.191Z,7.97
2023-03-13T01:18:45.042Z,6.43
2023-03-13T01:23:50.271Z,6.97
2023-03-13T01:28:53.237Z,7.35
2023-03-13T01:33:57.860Z,7.05
2023-03-13T01:39:02.378Z,8.65
2023-03-13T01:44:05.152Z,8.05
2023-03-13T01:49:11.014Z,8.90
2023-03-13T01:54:19.988Z,7.47
2023-03-13T01:59:26.101Z,8.60
2023-03-13T02:04:32.650Z,8.07
2023-03-13T02:09:38.046Z,6.82
2023-03-13T02:14:44.707Z,7.00
2023-03-13T02:19:48.905Z,7.47
2023-03-13T02:24:57.878Z,7.75
2023-03-13T02:30:01.857Z,8.30
2023-03-13T02:35:09.335Z,7.53
2023-03-13T02:40:15.582Z,6.60
2023-03-13T02:45:19.849Z,6.50
2023-03-13T02:50:22.782Z,6.45
2023-03-13T02:55:29.456Z,6.32
2023-03-13T03:00:33.486Z,6.28
2023-03-13T03:05:37.074Z,6.15
2023-03-13T03:10:39.632Z,6.57
2023-03-13T03:15:43.659Z,6.27
2023-03-13T03:20:46.236Z,7.00
2023-03-13T03:25:48.828Z,7.57
2023-03-13T03:30:54.181Z,7.17
2023-03-13T03:36:01.258Z,7.88
2023-03-13T03:41:03.966Z,7.47
2023-03-13T03:46:08.899Z,7.47
2023-03-13T03:51:11.595Z,8.55
2023-03-13T03:56:14.451Z,8.30
2023-03-13T04:01:18.341Z,7.43
2023-03-13T04:06:20.951Z,8.15
2023-03-13T04:11:23.577Z,7.73
2023-03-13T04:16:27.550Z,7.60
2023-03-13T04:21:31.187Z,7.85
2023-03-13T04:26:33.761Z,8.20
2023-03-13T04:31:37.674Z,8.20
2023-03-13T04:36:40.233Z,8.63
2023-03-13T04:41:42.747Z,7.67
2023-03-13T04:46:46.913Z,8.23
2023-03-13T04:51:49.462Z,8.77
2023-03-13T04:56:52.029Z,8.50
2023-03-13T05:01:55.932Z,8.13
2023-03-13T05:06:58.545Z,8.20
2023-03-13T05:12:01.148Z,8.93
2023-03-13T05:17:05.106Z,8.43
2023-03-13T05:22:07.650Z,9.02
2023-03-13T05:27:10.217Z,8.43
2023-03-13T05:32:14.220Z,8.70
2023-03-13T05:37:16.783Z,10.20
2023-03-13T05:42:19.406Z,10.40
2023-03-13T05:47:23.329Z,9.00
2023-03-13T05:52:25.877Z,9.40
2023-03-13T05:57:28.426Z,7.80
2023-03-13T06:02:32.416Z,8.90
2023-03-13T06:07:36.011Z,7.60
2023-03-13T06:12:39.137Z,7.07
2023-03-13T06:17:43.017Z,6.43
2023-03-13T06:22:45.541Z,7.40
2023-03-13T06:27:48.088Z,7.10
2023-03-13T06:32:52.131Z,6.70
2023-03-13T06:37:55.003Z,7.65
2023-03-13T06:42:57.591Z,7.05
2023-03-13T06:48:01.593Z,6.47
2023-03-13T06:53:04.196Z,5.60
2023-03-13T06:58:06.779Z,6.20
2023-03-13T07:03:11.125Z,5.27
2023-03-13T07:08:13.748Z,5.20
2023-03-13T07:13:16.325Z,5.07
2023-03-13T07:18:20.402Z,5.17
2023-03-13T07:23:23.317Z,4.80
2023-03-13T07:28:26.663Z,4.50
2023-03-13T07:38:33.182Z,3.70
2023-03-13T07:43:35.820Z,4.85
2023-03-13T07:48:41.079Z,3.90
2023-03-13T07:53:43.819Z,3.88
2023-03-13T07:58:46.767Z,3.78
2023-03-13T08:03:51.477Z,3.38
2023-03-13T08:08:54.539Z,3.45
2023-03-13T08:13:58.448Z,3.20
2023-03-13T08:19:05.057Z,3.15
2023-03-13T08:24:10.628Z,3.47
2023-03-13T08:29:15.303Z,3.10
2023-03-13T08:34:19.803Z,2.80
2023-03-13T08:39:22.488Z,3.25
2023-03-13T08:44:25.130Z,3.05
2023-03-13T08:49:30.022Z,3.40
2023-03-13T08:54:32.746Z,3.75
2023-03-13T08:59:35.358Z,2.75
2023-03-13T09:04:39.444Z,2.85
2023-03-13T09:09:42.231Z,2.90
2023-03-13T09:14:44.800Z,2.80
2023-03-13T09:19:59.665Z,2.92
2023-03-13T09:25:02.958Z,2.70
2023-03-13T09:30:06.518Z,2.10
2023-03-13T09:35:10.822Z,1.67
2023-03-13T09:40:16.850Z,1.58
2023-03-13T09:45:31.223Z,1.58
2023-03-13T09:50:37.598Z,1.50
2023-03-13T09:55:43.030Z,1.83
2023-03-13T10:00:49.385Z,1.70
2023-03-13T10:05:57.142Z,2.00
2023-03-13T10:11:05.786Z,1.73
2023-03-13T10:16:12.523Z,1.60
2023-03-13T10:21:20.659Z,1.50
2023-03-13T10:26:28.751Z,2.00
2023-03-13T10:31:34.133Z,1.90
2023-03-13T10:36:43.547Z,1.40
2023-03-13T10:41:46.468Z,1.52
2023-03-13T10:51:55.669Z,1.80
2023-03-13T10:57:27.999Z,1.70
2023-03-13T11:02:35.465Z,1.50
2023-03-13T11:07:40.559Z,2.08
2023-03-13T11:12:46.622Z,1.23
2023-03-13T11:17:53.549Z,1.80
2023-03-13T11:23:13.176Z,1.73
2023-03-13T11:28:32.412Z,1.73
2023-03-13T11:33:40.440Z,1.83
2023-03-13T11:38:49.850Z,1.65
2023-03-13T11:44:17.917Z,1.63
2023-03-13T11:49:47.427Z,1.75
2023-03-13T11:55:04.253Z,1.85
2023-03-13T12:00:22.886Z,1.70
2023-03-13T12:05:28.935Z,1.10
2023-03-13T12:10:39.669Z,1.67
2023-03-13T12:15:45.461Z,1.42
2023-03-13T12:20:57.657Z,1.30
2023-03-13T12:26:05.553Z,1.33
2023-03-13T12:31:18.579Z,1.30
2023-03-13T12:36:26.234Z,1.27
2023-03-13T12:41:34.272Z,2.00
2023-03-13T12:46:42.136Z,1.30
2023-03-13T12:52:02.541Z,1.42
2023-03-13T12:57:35.082Z,1.38
2023-03-13T13:02:38.014Z,1.02
2023-03-13T13:07:40.873Z,1.25
2023-03-13T13:12:46.019Z,1.50
2023-03-13T13:18:17.167Z,1.30
2023-03-13T13:23:33.711Z,1.73
2023-03-13T13:28:37.822Z,1.02
2023-03-13T13:33:41.622Z,1.45
2023-03-13T13:38:44.471Z,1.20
2023-03-13T13:43:49.891Z,1.20
2023-03-13T13:49:09.290Z,1.35
2023-03-13T13:54:33.514Z,1.52
2023-03-13T13:59:44.461Z,1.38
2023-03-13T14:04:52.429Z,1.38
2023-03-13T14:10:02.725Z,1.40
2023-03-13T14:15:15.736Z,1.42
2023-03-13T14:20:23.397Z,1.20
2023-03-13T14:25:26.818Z,2.15
2023-03-13T14:30:30.758Z,1.30
2023-03-13T14:35:33.599Z,1.10
2023-03-13T14:40:39.509Z,1.42
2023-03-13T14:45:43.647Z,1.40
2023-03-13T14:50:46.389Z,1.38
2023-03-13T15:00:53.842Z,1.60
2023-03-13T15:06:08.958Z,1.38
2023-03-13T15:11:21.044Z,1.33
2023-03-13T15:16:27.486Z,1.85
2023-03-13T15:21:31.439Z,1.83
2023-03-13T15:26:34.007Z,1.73
2023-03-13T15:31:39.698Z,1.85
2023-03-13T15:36:42.717Z,2.13
2023-03-13T15:41:45.324Z,1.73
2023-03-13T15:46:49.548Z,1.83
2023-03-13T15:51:53.559Z,2.60
2023-03-13T15:56:56.274Z,1.50
2023-03-13T16:02:00.209Z,1.88
2023-03-13T16:07:02.834Z,1.58
2023-03-13T16:12:05.835Z,2.15
2023-03-13T16:17:15.289Z,1.60
2023-03-13T16:22:18.073Z,1.90
2023-03-13T16:32:25.749Z,2.25
2023-03-13T16:37:28.393Z,2.42
2023-03-13T16:42:31.058Z,2.42
2023-03-13T16:47:35.960Z,1.40
2023-03-13T16:52:38.578Z,2.03
2023-03-13T16:57:41.210Z,2.45
2023-03-13T17:02:45.286Z,2.83
2023-03-13T17:07:50.288Z,2.40
2023-03-13T17:12:53.053Z,2.25
2023-03-13T17:17:57.612Z,3.03
2023-03-13T17:23:01.098Z,2.60
2023-03-13T17:28:03.798Z,2.58
2023-03-13T17:33:07.779Z,3.08
2023-03-13T17:38:11.346Z,3.97
2023-03-13T17:43:14.478Z,3.97
2023-03-13T17:48:18.426Z,3.63
2023-03-13T17:53:20.991Z,4.40
2023-03-13T17:58:23.618Z,3.70
2023-03-13T18:03:27.547Z,5.30
2023-03-13T18:08:30.515Z,4.78
2023-03-13T18:13:33.120Z,3.67
2023-03-13T18:18:37.053Z,4.38
2023-03-13T18:23:39.677Z,4.45
2023-03-13T18:28:43.244Z,5.00
2023-03-13T18:33:48.053Z,4.47
2023-03-13T18:38:50.918Z,4.22
2023-03-13T18:43:54.473Z,5.25
2023-03-13T18:48:58.892Z,4.65
2023-03-13T18:54:01.489Z,5.00
2023-03-13T18:59:04.094Z,6.10
2023-03-13T19:04:08.184Z,5.10
2023-03-13T19:09:41.076Z,4.95
2023-03-13T19:14:37.197Z,6.20
2023-03-13T19:19:41.347Z,7.77
2023-03-13T19:24:43.940Z,8.57
2023-03-13T19:29:47.127Z,18.17
2023-03-13T19:34:51.079Z,13.30
2023-03-13T19:39:53.684Z,10.05
2023-03-13T19:44:56.304Z,9.90
2023-03-13T19:50:00.378Z,18.90
2023-03-13T19:55:05.143Z,30.60
2023-03-13T20:00:13.992Z,13.18
2023-03-13T20:05:18.123Z,7.70
2023-03-13T20:10:21.333Z,6.32
2023-03-13T20:15:24.261Z,5.95
2023-03-13T20:20:29.248Z,6.18
2023-03-13T20:25:32.008Z,7.00
2023-03-13T20:30:34.837Z,6.57
2023-03-13T20:35:39.645Z,8.20
2023-03-13T20:40:42.319Z,8.52
2023-03-13T20:45:45.722Z,7.90
2023-03-13T20:55:55.244Z,7.57
2023-03-13T21:00:59.156Z,5.68
2023-03-13T21:06:09.338Z,9.55
2023-03-13T21:11:13.175Z,6.95
2023-03-13T21:16:16.933Z,6.97
2023-03-13T21:21:22.377Z,5.90
2023-03-13T21:26:25.003Z,6.43
2023-03-13T21:31:27.658Z,6.00
2023-03-13T21:36:31.732Z,6.50
2023-03-13T21:41:35.271Z,7.63
2023-03-13T21:46:37.896Z,7.63
2023-03-13T21:51:41.834Z,10.17
2023-03-13T21:56:45.443Z,5.35
2023-03-13T22:01:48.177Z,7.07
2023-03-13T22:06:52.163Z,5.35
2023-03-13T22:11:54.730Z,6.25
2023-03-13T22:16:57.291Z,5.47
2023-03-13T22:22:01.172Z,6.90
2023-03-13T22:27:03.851Z,7.10
2023-03-13T22:32:06.666Z,6.17
2023-03-13T22:37:10.579Z,5.88
2023-03-13T22:42:13.129Z,6.35
2023-03-13T22:47:15.767Z,5.77
2023-03-13T22:52:20.057Z,5.70
2023-03-13T22:57:22.702Z,4.95
2023-03-13T23:02:25.452Z,4.13
2023-03-13T23:07:30.636Z,4.22
2023-03-13T23:12:33.247Z,4.22
2023-03-13T23:17:37.181Z,4.47
2023-03-13T23:22:42.429Z,3.67
2023-03-13T23:27:45.892Z,3.95
2023-03-13T23:32:49.302Z,4.47
2023-03-13T23:42:56.654Z,4.85
2023-03-13T23:47:59.245Z,4.23
2023-03-13T23:53:03.223Z,3.73
2023-03-13T23:58:05.898Z,3.90
